Time;durP1;ratioP1;P1;durP2;ratioP2;P2;SDS_P1;SDS_P2;PMS_P1;PMS_P2;Temp;Humidity;BMP_temperature;BMP_pressure;BME280_temperature;BME280_humidity;BME280_pressure;Samples;Min_cycle;Max_cycle;Signal;HPM_P1;HPM_P2
2022/04/22 00:02:24;;;;;;;0.47;0.47;;;;;;;23.72;15.87;101387.03;5014277;28;20036;-78
2022/04/22 00:04:50;;;;;;;0.50;0.50;;;;;;;23.70;15.55;101392.72;5014449;28;20033;-78
2022/04/22 00:07:15;;;;;;;0.50;0.50;;;;;;;23.71;15.62;101390.81;5014736;28;20026;-78
2022/04/22 00:09:41;;;;;;;0.50;0.50;;;;;;;23.70;15.74;101390.00;5013399;28;20485;-78
2022/04/22 00:12:07;;;;;;;0.60;0.50;;;;;;;23.68;15.61;101400.34;5014588;28;20032;-78
2022/04/22 00:14:32;;;;;;;1.13;0.70;;;;;;;23.68;15.51;101389.44;5014645;28;20439;-78
2022/04/22 00:16:58;;;;;;;0.77;0.60;;;;;;;23.69;15.81;101387.50;5012944;28;20029;-78
2022/04/22 00:19:23;;;;;;;0.50;0.50;;;;;;;23.69;15.69;101388.34;5014135;28;20029;-78
2022/04/22 00:21:49;;;;;;;0.55;0.40;;;;;;;23.68;15.62;101383.97;5012850;28;20410;-78
2022/04/22 00:24:17;;;;;;;0.50;0.50;;;;;;;23.68;15.55;101380.41;5014515;28;20018;-78
2022/04/22 00:26:43;;;;;;;0.60;0.60;;;;;;;23.68;15.33;101381.25;5014375;28;20133;-78
2022/04/22 00:29:08;;;;;;;0.43;0.43;;;;;;;23.70;15.67;101383.69;5012884;28;20105;-78
2022/04/22 00:31:34;;;;;;;0.40;0.40;;;;;;;23.68;15.51;101380.41;5014023;28;20026;-78
2022/04/22 00:33:59;;;;;;;0.50;0.50;;;;;;;23.68;15.62;101386.69;5014296;28;20105;-78
2022/04/22 00:36:25;;;;;;;0.40;0.40;;;;;;;23.68;15.68;101383.97;5013271;28;20033;-78
2022/04/22 00:38:50;;;;;;;0.40;0.38;;;;;;;23.68;15.62;101375.78;5014166;28;20044;-78
2022/04/22 00:41:16;;;;;;;0.52;0.52;;;;;;;23.67;15.54;101373.31;5014124;28;20026;-78
2022/04/22 00:43:42;;;;;;;0.60;0.60;;;;;;;23.67;15.58;101374.13;5013924;28;20037;-78
2022/04/22 00:46:08;;;;;;;0.50;0.50;;;;;;;23.66;15.34;101367.00;5012683;28;20144;-78
2022/04/22 00:48:33;;;;;;;0.60;0.60;;;;;;;23.68;15.35;101364.03;5014294;28;20122;-78
2022/04/22 00:50:59;;;;;;;0.47;0.40;;;;;;;23.66;15.60;101356.09;5014194;28;20461;-78
2022/04/22 00:53:25;;;;;;;0.50;0.50;;;;;;;23.64;15.60;101363.69;5014049;28;20453;-78
2022/04/22 00:55:50;;;;;;;0.50;0.50;;;;;;;23.65;15.40;101365.38;5027977;28;20448;-78
2022/04/22 00:58:16;;;;;;;0.40;0.40;;;;;;;23.63;15.50;101362.88;5032060;28;20479;-78
2022/04/22 01:00:41;;;;;;;0.50;0.50;;;;;;;23.66;15.47;101358.00;5032802;28;20025;-78
2022/04/22 01:03:07;;;;;;;0.60;0.50;;;;;;;23.66;15.35;101360.72;5037716;28;20048;-78
2022/04/22 01:11:00;;;;;;;0.50;0.50;;;;;;;23.66;15.41;101356.09;5050876;28;20051;-78
2022/04/22 01:13:26;;;;;;;0.52;0.50;;;;;;;23.65;15.16;101356.38;5036739;28;20033;-78
2022/04/22 01:15:51;;;;;;;0.50;0.50;;;;;;;23.63;15.48;101356.59;5036264;28;20021;-78
2022/04/22 01:18:17;;;;;;;0.50;0.32;;;;;;;23.65;15.53;101359.09;5037379;28;20460;-78
2022/04/22 01:20:42;;;;;;;0.43;0.40;;;;;;;23.63;15.25;101368.34;5036016;28;20439;-78
2022/04/22 01:23:08;;;;;;;0.60;0.40;;;;;;;23.63;15.26;101354.69;5037319;28;20120;-78
2022/04/22 01:25:33;;;;;;;0.40;0.40;;;;;;;23.63;15.46;101354.69;5037381;28;20384;-78
2022/04/22 01:28:01;;;;;;;0.50;0.50;;;;;;;23.62;15.27;101354.94;5037195;28;20491;-78
2022/04/22 01:30:27;;;;;;;0.63;0.60;;;;;;;23.62;15.49;101352.22;5036795;28;20028;-78
2022/04/22 01:32:56;;;;;;;0.93;0.50;;;;;;;23.62;15.37;101354.94;5037484;28;20363;-78
2022/04/22 01:35:21;;;;;;;0.50;0.50;;;;;;;23.63;15.25;101356.59;5037224;28;20079;-78
2022/04/22 01:37:47;;;;;;;1.08;0.57;;;;;;;23.61;15.26;101353.28;5052962;28;20025;-78
2022/04/22 01:40:12;;;;;;;0.50;0.50;;;;;;;23.62;15.35;101354.94;5037880;28;20053;-78
2022/04/22 01:42:38;;;;;;;0.50;0.50;;;;;;;23.60;15.29;101347.00;5035718;28;20474;-78
2022/04/22 01:45:04;;;;;;;0.40;0.40;;;;;;;23.60;15.42;101351.66;5037472;28;20452;-78
2022/04/22 01:47:30;;;;;;;0.43;0.40;;;;;;;23.60;15.40;101348.91;5037919;28;20025;-78
2022/04/22 01:49:55;;;;;;;0.73;0.40;;;;;;;23.59;15.42;101349.97;5052257;28;20163;-78
2022/04/22 01:52:21;;;;;;;0.47;0.47;;;;;;;23.61;15.37;101347.81;5039375;28;20067;-79
2022/04/22 01:54:46;;;;;;;0.50;0.50;;;;;;;23.62;15.33;101354.94;5037916;28;20029;-78
2022/04/22 01:57:12;;;;;;;0.47;0.47;;;;;;;23.59;15.21;101349.97;5040925;28;20083;-78
2022/04/22 01:59:37;;;;;;;0.40;0.40;;;;;;;23.60;15.40;101351.66;5036579;28;20026;-78
2022/04/22 02:02:03;;;;;;;0.35;0.35;;;;;;;23.60;15.36;101346.19;5051953;28;20021;-78
2022/04/22 02:04:28;;;;;;;0.43;0.43;;;;;;;23.60;15.28;101346.19;5052497;28;20065;-78
2022/04/22 02:07:03;;;;;;;0.60;0.50;;;;;;;23.61;15.40;101347.81;5036724;28;20472;-78
2022/04/22 02:09:29;;;;;;;0.40;0.40;;;;;;;23.61;15.40;101347.81;5036307;28;20109;-78
2022/04/22 02:11:56;;;;;;;0.40;0.40;;;;;;;23.59;15.34;101348.09;5036291;28;20041;-78
2022/04/22 02:14:22;;;;;;;0.40;0.40;;;;;;;23.58;15.28;101351.09;5051321;28;20030;-78
2022/04/22 02:16:48;;;;;;;0.60;0.60;;;;;;;23.56;15.36;101337.69;5036444;28;20022;-78
2022/04/22 02:19:14;;;;;;;0.40;0.40;;;;;;;23.58;15.25;101340.97;5036121;28;20112;-78
2022/04/22 02:21:41;;;;;;;0.50;0.50;;;;;;;23.57;15.40;101341.22;5036335;28;20025;-78
2022/04/22 02:24:07;;;;;;;0.50;0.50;;;;;;;23.60;15.24;101346.19;5035864;28;20037;-78
2022/04/22 02:28:31;;;;;;;0.50;0.50;;;;;;;23.58;15.34;101334.72;5051722;28;20022;-77
2022/04/22 02:29:18;;;;;;;0.63;0.60;;;;;;;23.56;15.17;101339.56;5035615;28;20434;-78
2022/04/22 02:31:43;;;;;;;0.50;0.50;;;;;;;23.56;15.11;101332.22;5035590;28;20137;-78
2022/04/22 02:34:09;;;;;;;0.40;0.40;;;;;;;23.56;15.08;101331.38;5035654;28;20025;-78
2022/04/22 02:36:34;;;;;;;0.50;0.50;;;;;;;23.58;15.35;101331.97;5035966;28;20029;-78
2022/04/22 02:39:00;;;;;;;0.50;0.50;;;;;;;23.56;15.30;101336.84;5034402;28;20506;-78
2022/04/22 02:46:53;;;;;;;0.40;0.40;;;;;;;23.55;14.97;101316.94;5036107;28;20099;-78
2022/04/22 02:49:18;;;;;;;0.47;0.47;;;;;;;23.56;15.02;101321.31;5034651;28;20059;-78
2022/04/22 02:51:44;;;;;;;0.60;0.50;;;;;;;23.58;14.95;101319.16;5035517;28;20452;-77
2022/04/22 02:54:09;;;;;;;0.57;0.43;;;;;;;23.54;15.22;101323.47;5035673;28;20014;-78
2022/04/22 02:56:35;;;;;;;0.50;0.50;;;;;;;23.52;15.16;101322.06;5016635;28;20027;-78
2022/04/22 02:59:00;;;;;;;0.60;0.60;;;;;;;23.55;15.15;101321.56;5014612;28;20081;-78
2022/04/22 03:01:26;;;;;;;0.50;0.50;;;;;;;23.56;14.79;101321.31;5015583;28;20408;-78
2022/04/22 03:03:51;;;;;;;0.50;0.50;;;;;;;23.60;14.95;101327.09;5015897;28;20164;-78
2022/04/22 03:06:17;;;;;;;0.40;0.40;;;;;;;23.65;15.02;101326.34;5016301;28;20095;-78
2022/04/22 03:08:43;;;;;;;0.50;0.50;;;;;;;23.67;14.95;101330.47;5014611;28;20045;-78
2022/04/22 03:11:08;;;;;;;0.40;0.40;;;;;;;23.72;14.75;101322.34;5015876;28;20026;-78
2022/04/22 03:13:34;;;;;;;1.38;0.40;;;;;;;23.74;14.91;101319.38;5015697;28;20029;-78
2022/04/22 03:15:59;;;;;;;0.60;0.50;;;;;;;23.77;14.74;101327.88;5015739;28;20029;-78
2022/04/22 03:18:25;;;;;;;1.10;0.50;;;;;;;23.76;14.87;101331.66;5015380;28;20104;-78
2022/04/22 03:20:50;;;;;;;0.43;0.43;;;;;;;23.78;15.12;101326.81;5016030;28;20107;-78
2022/04/22 03:23:16;;;;;;;0.40;0.40;;;;;;;23.81;15.02;101326.31;5015152;28;20464;-78
2022/04/22 03:25:41;;;;;;;0.60;0.50;;;;;;;23.84;14.86;101324.97;5015184;28;20026;-78
2022/04/22 03:28:07;;;;;;;0.65;0.60;;;;;;;23.87;15.00;101329.09;5015598;28;20030;-78
2022/04/22 03:30:37;;;;;;;2.03;0.40;;;;;;;23.88;15.02;101322.56;5015327;28;20049;-78
2022/04/22 03:33:03;;;;;;;0.50;0.50;;;;;;;23.92;15.09;101329.16;5015354;28;20105;-78
2022/04/22 03:35:29;;;;;;;0.50;0.50;;;;;;;23.94;15.04;101332.44;5015920;28;20071;-79
2022/04/22 03:37:55;;;;;;;0.50;0.47;;;;;;;23.95;15.03;101331.38;5018099;28;20034;-78
2022/04/22 03:40:21;;;;;;;0.50;0.50;;;;;;;24.03;15.27;101330.94;5017911;28;20162;-78
2022/04/22 03:42:46;;;;;;;1.33;0.50;;;;;;;24.03;15.02;101328.22;5017970;28;20109;-78
2022/04/22 03:45:12;;;;;;;2.38;0.50;;;;;;;24.09;15.01;101326.38;5019227;28;20038;-78
2022/04/22 03:47:38;;;;;;;0.50;0.50;;;;;;;24.08;15.01;101338.38;5035217;28;20486;-78
2022/04/22 03:50:04;;;;;;;0.60;0.57;;;;;;;24.08;15.33;101328.28;5018655;28;20376;-79
2022/04/22 03:52:30;;;;;;;1.70;0.47;;;;;;;24.10;14.93;101328.03;5018426;28;20072;-79
2022/04/22 03:54:55;;;;;;;0.88;0.60;;;;;;;24.12;15.06;101326.66;5038288;28;20029;-79
2022/04/22 04:00:05;;;;;;;0.57;0.47;;;;;;;24.19;15.13;101335.50;5038087;28;20024;-79
2022/04/22 04:02:31;;;;;;;0.50;0.50;;;;;;;24.20;15.23;101325.41;5036583;28;20033;-81
2022/04/22 04:04:56;;;;;;;0.80;0.50;;;;;;;24.23;15.09;101329.53;5037906;28;20048;-81
2022/04/22 04:07:21;;;;;;;0.60;0.60;;;;;;;24.26;15.02;101315.34;5035719;28;20484;-82
2022/04/22 04:18:17;;;;;;;0.45;0.45;;;;;;;24.62;15.24;101329.41;5046790;28;20039;-82
2022/04/22 04:23:26;;;;;;;0.70;0.70;;;;;;;24.61;15.35;101322.28;5039571;28;20041;-79
2022/04/22 04:25:52;;;;;;;2.10;0.57;;;;;;;24.58;15.40;101318.19;5034976;28;20025;-78
2022/04/22 04:28:17;;;;;;;1.05;0.50;;;;;;;24.64;15.16;101322.59;5037052;28;20075;-79
2022/04/22 04:30:43;;;;;;;0.45;0.45;;;;;;;24.63;15.57;101318.22;5035378;28;20456;-79
2022/04/22 04:33:09;;;;;;;1.13;0.70;;;;;;;24.65;15.37;101320.69;5053993;28;20021;-79
2022/04/22 04:35:35;;;;;;;0.85;0.63;;;;;;;24.65;15.39;101317.97;5044045;28;20033;-78
2022/04/22 04:38:01;;;;;;;0.70;0.60;;;;;;;24.71;15.74;101322.38;5037579;28;20026;-80
2022/04/22 04:40:28;;;;;;;1.50;0.50;;;;;;;24.69;15.81;101313.63;5041006;28;20040;-78
2022/04/22 04:42:53;;;;;;;0.70;0.60;;;;;;;24.74;15.90;101316.41;5039269;28;20030;-79
2022/04/22 04:45:20;;;;;;;1.15;0.63;;;;;;;24.69;16.21;101319.09;5040866;28;20056;-79
2022/04/22 04:47:45;;;;;;;0.60;0.60;;;;;;;24.71;15.98;101314.19;5034531;28;20030;-79
2022/04/22 04:50:11;;;;;;;0.63;0.63;;;;;;;24.76;15.85;101311.50;5041253;28;20116;-77
2022/04/22 04:52:40;;;;;;;0.77;0.70;;;;;;;24.82;16.08;101315.94;5037957;28;20048;-79
2022/04/22 04:55:07;;;;;;;1.75;0.60;;;;;;;24.83;15.92;101308.53;5034032;28;20022;-78
2022/04/22 04:57:32;;;;;;;0.50;0.50;;;;;;;24.83;16.32;101314.00;5020076;28;20088;-77
2022/04/22 04:59:58;;;;;;;1.40;0.70;;;;;;;24.82;16.28;101317.81;5017976;28;20034;-79
2022/04/22 05:02:23;;;;;;;0.73;0.70;;;;;;;24.85;16.50;101315.41;5019545;28;20041;-77
2022/04/22 05:04:49;;;;;;;1.77;1.02;;;;;;;24.88;16.54;101317.59;5015893;28;20086;-77
2022/04/22 05:07:14;;;;;;;1.98;1.38;;;;;;;24.86;16.69;101318.97;5018955;28;20030;-77
2022/04/22 05:09:40;;;;;;;5.30;2.10;;;;;;;24.88;16.80;101322.25;5016572;28;20388;-76
2022/04/22 05:12:05;;;;;;;40.40;15.90;;;;;;;24.87;16.51;101326.91;5017370;28;20037;-77
2022/04/22 05:14:31;;;;;;;63.97;22.95;;;;;;;24.86;16.70;101319.78;5019727;28;20029;-77
2022/04/22 05:16:56;;;;;;;45.50;17.48;;;;;;;24.91;16.63;101319.81;5015950;28;20034;-77
2022/04/22 05:19:22;;;;;;;26.30;11.02;;;;;;;24.95;16.34;101317.38;5014797;28;20041;-77
2022/04/22 05:21:49;;;;;;;24.23;9.52;;;;;;;24.98;16.54;101329.72;5013489;28;20037;-78
2022/04/22 05:24:15;;;;;;;20.45;8.60;;;;;;;24.97;16.59;101322.59;5015012;28;20026;-79
2022/04/22 05:26:40;;;;;;;13.63;5.60;;;;;;;24.95;16.66;101322.84;5016272;28;20061;-79
2022/04/22 05:32:36;;;;;;;5.88;2.92;;;;;;;24.05;17.31;101317.03;5015404;28;20046;-79
2022/04/22 05:34:35;;;;;;;4.18;2.13;;;;;;;24.34;17.10;101314.91;5023135;28;20361;-78
2022/04/22 05:37:00;;;;;;;2.08;1.30;;;;;;;24.41;17.17;101315.50;5018438;28;20460;-77
2022/04/22 05:39:25;;;;;;;2.92;1.50;;;;;;;24.38;16.76;101311.38;5015804;28;20049;-78
2022/04/22 05:41:51;;;;;;;2.95;1.20;;;;;;;24.54;16.94;101309.69;5013913;28;20026;-78
2022/04/22 05:44:17;;;;;;;4.93;1.00;;;;;;;24.09;17.36;101316.25;5013067;28;20053;-77
2022/04/22 05:46:42;;;;;;;1.60;1.10;;;;;;;24.38;17.06;101318.75;5014187;28;20081;-78
2022/04/22 05:49:08;;;;;;;1.45;1.00;;;;;;;24.62;16.75;101318.47;5016770;28;20492;-77
2022/04/22 05:51:33;;;;;;;1.95;1.08;;;;;;;24.73;16.86;101321.06;5016970;28;20109;-77
2022/04/22 05:53:59;;;;;;;1.40;1.08;;;;;;;24.92;16.56;101315.16;5018022;28;20084;-78
2022/04/22 05:56:24;;;;;;;1.30;0.80;;;;;;;24.92;16.55;101312.44;5032339;28;20148;-78
2022/04/22 05:58:49;;;;;;;0.98;0.70;;;;;;;25.25;16.45;101314.09;5036682;28;20030;-78
2022/04/22 06:01:15;;;;;;;1.83;1.00;;;;;;;25.35;16.01;101317.97;5037106;28;20052;-78
2022/04/22 06:03:41;;;;;;;1.85;0.82;;;;;;;25.41;16.19;101316.91;5037758;28;20432;-79
2022/04/22 06:06:06;;;;;;;1.70;0.80;;;;;;;25.46;15.98;101312.28;5037819;28;20065;-79
2022/04/22 06:11:16;;;;;;;;;;;;;;;25.76;16.05;101299.03;5037733;28;20498;-78
2022/04/22 06:13:41;;;;;;;1.80;0.60;;;;;;;25.63;15.77;101301.16;5035691;28;19913;-78
2022/04/22 06:16:06;;;;;;;0.50;0.50;;;;;;;25.62;15.95;101306.91;5037027;28;20748;-79
2022/04/22 06:18:32;;;;;;;0.95;0.70;;;;;;;25.59;15.97;101308.25;5036170;28;20032;-78
2022/04/22 06:20:57;;;;;;;5.55;2.45;;;;;;;25.56;15.85;101305.22;5036274;28;20033;-80
2022/04/22 06:23:23;;;;;;;13.77;4.88;;;;;;;25.59;15.99;101313.72;5035722;28;20083;-78
2022/04/22 06:25:48;;;;;;;12.43;4.68;;;;;;;25.58;15.92;101309.34;5036141;28;20087;-79
2022/04/22 06:28:14;;;;;;;34.85;14.18;;;;;;;25.64;16.24;101304.72;5036633;28;20036;-78
2022/04/22 06:30:41;;;;;;;163.18;65.60;;;;;;;25.64;16.18;101311.00;5036764;28;20432;-78
2022/04/22 06:33:06;;;;;;;140.85;52.13;;;;;;;25.61;15.94;101308.81;5036813;28;20030;-78
2022/04/22 06:35:32;;;;;;;155.57;52.55;;;;;;;25.59;16.08;101310.97;5036093;28;20391;-78
2022/04/22 06:38:00;;;;;;;44.97;17.02;;;;;;;25.62;15.88;101315.94;5035167;28;20100;-78
2022/04/22 06:45:54;;;;;;;;;;;;;;;25.03;16.63;101319.63;5036288;28;20405;-77
2022/04/22 06:48:30;;;;;;;10.60;3.90;;;;;;;25.02;16.82;101308.97;5035689;28;19983;-77
2022/04/22 06:50:56;;;;;;;10.85;4.18;;;;;;;25.06;16.38;101301.88;5035452;28;20044;-77
2022/04/22 06:53:22;;;;;;;9.38;3.22;;;;;;;25.11;16.64;101305.47;5035093;28;20348;-80
2022/04/22 06:55:47;;;;;;;7.70;3.55;;;;;;;25.25;16.66;101305.00;5026198;28;20037;-78
2022/04/22 06:58:14;;;;;;;5.75;2.65;;;;;;;25.49;16.41;101289.03;5015917;28;20084;-79
2022/04/22 07:00:40;;;;;;;5.32;2.25;;;;;;;25.57;16.54;101291.25;5015493;28;20025;-78
2022/04/22 07:03:07;;;;;;;4.60;1.95;;;;;;;25.75;16.29;101280.94;5014103;28;20087;-77
2022/04/22 07:05:33;;;;;;;4.10;1.70;;;;;;;25.84;16.18;101284.81;5016242;28;20022;-77
2022/04/22 07:08:00;;;;;;;5.72;1.63;;;;;;;25.88;16.17;101280.44;5015186;28;20018;-77
2022/04/22 07:10:26;;;;;;;10.38;5.20;;;;;;;25.88;16.08;101274.97;5015491;28;20028;-78
2022/04/22 07:12:51;;;;;;;26.65;13.98;;;;;;;25.87;16.14;101273.31;5015255;28;20030;-78
2022/04/22 07:15:17;;;;;;;6.72;3.55;;;;;;;25.90;16.03;101271.97;4997376;28;20029;-77
2022/04/22 07:17:42;;;;;;;300.20;121.30;;;;;;;25.98;16.09;101275.03;5015796;28;20056;-78
2022/04/22 07:20:09;;;;;;;37.58;16.05;;;;;;;25.98;15.85;101272.28;5014821;28;20076;-78
2022/04/22 07:22:38;;;;;;;15.93;5.97;;;;;;;25.92;15.88;101273.31;5015094;28;20037;-76
2022/04/22 07:25:07;;;;;;;10.70;4.57;;;;;;;25.92;15.76;101270.59;5013822;28;20022;-78
2022/04/22 07:27:33;;;;;;;9.57;3.35;;;;;;;25.91;15.70;101274.44;5014867;28;20030;-78
2022/04/22 07:29:59;;;;;;;5.00;2.35;;;;;;;25.63;16.15;101275.69;5013989;28;20443;-78
2022/04/22 07:32:26;;;;;;;4.15;1.50;;;;;;;25.05;16.64;101273.72;5014431;28;20022;-77
2022/04/22 07:34:53;;;;;;;1.90;1.20;;;;;;;25.11;16.41;101280.03;5015636;28;20157;-77
2022/04/22 07:37:18;;;;;;;1.60;1.10;;;;;;;25.35;16.04;101274.19;5015223;28;20028;-77
2022/04/22 07:39:44;;;;;;;2.67;1.38;;;;;;;25.34;16.24;101272.56;5017125;28;20124;-76
2022/04/22 07:42:18;;;;;;;1.50;0.90;;;;;;;25.52;16.16;101274.81;5017408;28;20052;-79
2022/04/22 07:47:32;;;;;;;2.08;1.00;;;;;;;25.91;15.56;101266.22;5017168;28;20492;-80
2022/04/22 07:49:58;;;;;;;4.32;1.77;;;;;;;26.01;15.50;101260.00;5017586;28;20036;-79
2022/04/22 07:52:24;;;;;;;1.95;1.35;;;;;;;26.09;15.61;101261.38;5018831;28;20093;-79
2022/04/22 07:54:49;;;;;;;1.80;0.98;;;;;;;26.12;15.47;101266.31;5014941;28;20022;-79
2022/04/22 07:57:15;;;;;;;1.40;0.65;;;;;;;26.13;15.56;101265.19;5034232;28;20025;-79
2022/04/22 07:59:41;;;;;;;1.77;0.80;;;;;;;26.17;15.54;101258.09;5034955;28;20037;-78
2022/04/22 08:02:06;;;;;;;3.67;1.08;;;;;;;26.23;15.48;101262.47;5035684;28;20103;-78
2022/04/22 08:04:32;;;;;;;5.70;1.10;;;;;;;26.24;15.16;101255.91;5036354;28;20440;-78
2022/04/22 08:06:57;;;;;;;7.30;1.10;;;;;;;26.16;15.30;101254.50;5037398;28;20033;-79
2022/04/22 08:09:23;;;;;;;9.23;2.15;;;;;;;26.16;15.50;101257.25;5035774;28;20026;-80
2022/04/22 08:11:48;;;;;;;6.30;2.05;;;;;;;26.22;15.38;101263.59;5035289;28;20384;-80
2022/04/22 08:14:14;;;;;;;5.88;1.77;;;;;;;26.19;15.58;101251.25;5034794;28;20468;-79
2022/04/22 08:16:39;;;;;;;4.32;1.60;;;;;;;26.13;15.44;101259.72;5034571;28;20033;-79
2022/04/22 08:19:05;;;;;;;4.90;1.10;;;;;;;26.19;15.24;101258.66;5051980;28;20338;-79
2022/04/22 08:21:33;;;;;;;1.20;0.77;;;;;;;26.07;15.43;101253.41;5035292;28;20369;-78
2022/04/22 08:24:00;;;;;;;4.03;1.50;;;;;;;26.13;15.46;101254.25;5049791;28;20034;-79
2022/04/22 08:26:25;;;;;;;5.55;2.40;;;;;;;26.20;15.25;101243.88;5034226;28;20025;-78
2022/04/22 08:28:51;;;;;;;4.15;1.40;;;;;;;26.22;15.51;101247.16;5035597;28;20033;-79
2022/04/22 08:31:19;;;;;;;3.88;1.70;;;;;;;26.19;15.57;101250.44;5052768;28;20103;-80
2022/04/22 08:33:46;;;;;;;2.28;1.27;;;;;;;26.19;15.52;101247.69;5036180;28;20032;-80
2022/04/22 08:36:12;;;;;;;3.08;1.25;;;;;;;26.23;15.20;101249.63;5033603;28;20367;-80
2022/04/22 08:38:37;;;;;;;1.58;0.90;;;;;;;26.22;15.24;101242.47;5034238;28;20021;-82
2022/04/22 08:41:03;;;;;;;0.90;0.63;;;;;;;26.27;15.29;101236.19;5035204;28;20029;-83
2022/04/22 08:43:30;;;;;;;1.33;0.80;;;;;;;26.19;15.36;101236.72;5035856;28;20144;-81
2022/04/22 08:45:55;;;;;;;0.50;0.50;;;;;;;26.23;15.26;101237.81;5035970;28;20024;-82
2022/04/22 08:51:05;;;;;;;1.42;0.70;;;;;;;26.24;15.27;101236.72;5047769;28;20495;-79
2022/04/22 08:53:30;;;;;;;0.60;0.50;;;;;;;26.27;15.31;101235.34;5032818;28;20029;-82
2022/04/22 08:55:57;;;;;;;1.38;0.50;;;;;;;26.31;15.12;101222.78;5049112;28;20049;-79
2022/04/22 08:58:29;;;;;;;0.57;0.50;;;;;;;26.30;15.00;101227.44;5033498;28;20021;-80
2022/04/22 09:00:56;;;;;;;0.35;0.35;;;;;;;26.27;15.37;101227.13;5034543;28;20374;-80
2022/04/22 09:03:21;;;;;;;0.63;0.50;;;;;;;26.30;15.13;101232.06;5035593;28;20032;-82
2022/04/22 09:05:47;;;;;;;0.43;0.40;;;;;;;26.29;15.24;101234.00;5035316;28;20453;-81
2022/04/22 09:08:12;;;;;;;0.40;0.40;;;;;;;26.30;15.08;101227.44;5034797;28;20060;-80
2022/04/22 09:10:40;;;;;;;0.45;0.45;;;;;;;26.39;15.10;101223.03;5033432;28;20034;-80
2022/04/22 09:13:09;;;;;;;0.40;0.40;;;;;;;26.30;15.62;101221.97;5034552;28;20030;-80
2022/04/22 09:15:35;;;;;;;110.28;41.47;;;;;;;26.38;15.32;101224.13;5035033;28;20026;-79
2022/04/22 09:18:12;;;;;;;83.85;28.83;;;;;;;26.40;15.46;101221.94;5032601;28;20025;-78
2022/04/22 09:20:38;;;;;;;16.55;5.75;;;;;;;26.39;15.30;101219.50;5033588;28;20052;-79
2022/04/22 09:23:20;;;;;;;19.10;8.20;;;;;;;26.36;15.60;101220.03;5035895;28;20468;-79
2022/04/22 09:25:45;;;;;;;16.25;5.63;;;;;;;26.37;15.43;101216.19;5051281;28;20021;-78
2022/04/22 09:28:11;;;;;;;5.65;2.53;;;;;;;26.46;15.41;101209.06;5037951;28;20040;-81
2022/04/22 09:30:36;;;;;;;3.33;1.75;;;;;;;26.38;15.46;101207.69;5053717;28;20041;-78
2022/04/22 09:33:02;;;;;;;4.03;1.70;;;;;;;26.43;15.38;101210.44;5038425;28;20029;-78
2022/04/22 09:35:29;;;;;;;3.95;1.30;;;;;;;26.54;15.45;101205.75;5036632;28;20037;-78
2022/04/22 09:43:38;;;;;;;8.55;4.10;;;;;;;26.59;15.68;101202.19;5038518;28;20139;-82
2022/04/22 09:46:04;;;;;;;6.50;3.38;;;;;;;26.38;15.63;101198.66;5053943;28;20120;-80
2022/04/22 09:48:44;;;;;;;1.75;1.35;;;;;;;25.38;16.32;101206.06;5037987;28;20033;-81
2022/04/22 09:51:20;;;;;;;1.75;1.10;;;;;;;25.59;16.26;101201.50;5038987;28;20025;-80
2022/04/22 09:53:47;;;;;;;2.88;1.10;;;;;;;25.75;16.43;101204.28;5039909;28;20037;-78
2022/04/22 09:56:12;;;;;;;2.80;1.30;;;;;;;26.22;15.92;101200.56;5033766;28;20033;-78
2022/04/22 09:58:38;;;;;;;3.72;1.42;;;;;;;26.43;15.80;101194.00;5026523;28;20026;-81
2022/04/22 10:01:09;;;;;;;3.63;2.28;;;;;;;26.07;15.99;101193.16;5025250;28;20473;-81
2022/04/22 10:03:38;;;;;;;8.55;3.78;;;;;;;25.90;16.19;101198.84;5025797;28;20075;-82
2022/04/22 10:06:05;;;;;;;7.25;3.15;;;;;;;26.03;15.99;101198.34;5022235;28;20057;-81
2022/04/22 10:08:36;;;;;;;5.60;2.10;;;;;;;26.09;15.74;101193.69;5020009;28;20444;-80
2022/04/22 10:11:02;;;;;;;3.78;1.60;;;;;;;26.24;15.51;101195.63;5033378;28;20044;-79
2022/04/22 10:13:39;;;;;;;3.40;1.48;;;;;;;26.36;15.50;101198.94;5020406;28;20022;-80
2022/04/22 10:16:05;;;;;;;5.88;1.90;;;;;;;26.01;15.58;101186.84;5020764;28;20101;-79
2022/04/22 10:18:30;;;;;;;7.68;3.30;;;;;;;25.93;15.84;101190.09;5004572;28;20037;-81
2022/04/22 10:20:56;;;;;;;5.18;2.22;;;;;;;25.91;16.38;101181.34;5006217;28;20049;-81
2022/04/22 10:23:22;;;;;;;9.63;3.25;;;;;;;26.06;15.90;101183.31;5023239;28;20033;-82
2022/04/22 10:25:48;;;;;;;9.82;2.90;;;;;;;26.49;15.75;101181.13;5024100;28;20033;-81
2022/04/22 10:28:14;;;;;;;3.42;1.77;;;;;;;26.72;15.47;101179.75;5024474;28;20018;-81
2022/04/22 10:30:41;;;;;;;6.57;1.40;;;;;;;26.77;15.28;101179.72;5020026;28;20373;-81
2022/04/22 10:33:08;;;;;;;5.50;1.90;;;;;;;26.89;15.27;101173.94;5017020;28;20081;-80
2022/04/22 10:35:44;;;;;;;2.92;1.20;;;;;;;27.04;15.31;101170.31;5018172;28;20048;-80
2022/04/22 10:38:38;;;;;;;14.68;6.22;;;;;;;27.06;15.35;101172.78;5018088;28;20025;-80
2022/04/22 10:41:13;;;;;;;19.85;9.23;;;;;;;27.02;15.06;101167.03;5019373;28;20554;-82
2022/04/22 10:43:39;;;;;;;15.00;7.10;;;;;;;27.03;15.03;101171.44;5018534;28;20061;-82
2022/04/22 10:49:14;;;;;;;22.27;9.45;;;;;;;27.06;14.88;101168.16;5005221;28;20095;-81
2022/04/22 10:52:13;;;;;;;14.90;6.78;;;;;;;27.07;14.85;101164.28;5004608;28;20030;-82
2022/04/22 10:54:58;;;;;;;14.15;5.88;;;;;;;27.06;15.04;101157.16;5019898;28;20030;-80
2022/04/22 10:57:31;;;;;;;13.35;4.78;;;;;;;27.03;14.79;101156.88;5038771;28;20036;-80
2022/04/22 11:00:03;;;;;;;16.60;7.43;;;;;;;27.02;14.71;101153.31;5037645;28;20032;-81
2022/04/22 11:02:30;;;;;;;37.28;18.08;;;;;;;27.01;14.45;101146.22;5036691;28;20025;-80
2022/04/22 11:05:20;;;;;;;21.55;11.50;;;;;;;27.03;14.60;101146.75;5037735;28;20021;-81
2022/04/22 11:07:51;;;;;;;16.10;7.68;;;;;;;26.98;14.46;101146.78;5037825;28;20033;-80
2022/04/22 11:10:17;;;;;;;10.40;5.95;;;;;;;26.97;14.50;101143.22;5036142;28;20491;-80
2022/04/22 11:12:59;;;;;;;10.63;5.70;;;;;;;26.98;14.49;101141.28;5036486;28;20032;-79
2022/04/22 11:15:43;;;;;;;9.68;5.10;;;;;;;26.99;14.45;101151.13;5036674;28;20053;-81
2022/04/22 11:18:16;;;;;;;9.15;4.68;;;;;;;26.97;14.40;101139.63;5037107;28;20036;-80
2022/04/22 11:21:05;;;;;;;7.50;4.15;;;;;;;26.91;14.53;101136.09;5040707;28;20033;-79
2022/04/22 11:23:39;;;;;;;7.28;3.78;;;;;;;26.90;14.37;101137.19;4995867;28;20042;-79
2022/04/22 11:26:05;;;;;;;6.90;3.05;;;;;;;26.90;14.31;101136.38;4995793;28;20072;-80
2022/04/22 11:28:34;;;;;;;3.20;2.00;;;;;;;26.90;14.23;101130.88;4995661;28;20042;-79
2022/04/22 11:31:03;;;;;;;2.47;2.00;;;;;;;26.86;14.13;101129.81;4998012;28;20082;-80
2022/04/22 11:33:33;;;;;;;4.25;2.15;;;;;;;26.87;14.31;101128.69;5001917;28;20041;-81
2022/04/22 11:36:02;;;;;;;5.53;2.47;;;;;;;26.85;14.24;101128.97;4983924;28;20026;-83
2022/04/22 11:38:28;;;;;;;2.88;1.70;;;;;;;26.89;14.10;101123.75;4981645;28;20026;-79
2022/04/22 11:40:54;;;;;;;4.50;2.40;;;;;;;26.86;14.15;101127.06;4964239;28;20089;-80
2022/04/22 11:43:20;;;;;;;3.85;1.70;;;;;;;26.89;14.34;101123.75;4997893;28;20126;-80
2022/04/22 11:45:47;;;;;;;2.38;1.58;;;;;;;26.85;14.33;101128.16;4995879;28;20030;-80
2022/04/22 11:48:19;;;;;;;1.95;1.10;;;;;;;26.85;14.19;101123.47;4996464;28;20089;-79
2022/04/22 11:50:46;;;;;;;1.77;1.20;;;;;;;26.81;14.39;101124.34;4996311;28;20037;-80
2022/04/22 11:53:26;;;;;;;1.40;1.00;;;;;;;26.82;14.32;101115.00;5004352;28;20117;-81
2022/04/22 11:55:51;;;;;;;1.48;1.10;;;;;;;26.83;14.22;101109.22;4996871;28;20034;-79
2022/04/22 11:58:24;;;;;;;2.78;1.35;;;;;;;26.78;14.33;101109.25;4977570;28;20027;-79
2022/04/22 12:06:17;;;;;;;;;;;;;;;27.13;14.19;101104.72;5022392;28;20064;-82
2022/04/22 12:09:09;;;;;;;5.72;2.25;;;;;;;27.02;14.48;101116.84;5023554;28;19910;-81
2022/04/22 12:11:39;;;;;;;5.20;2.70;;;;;;;26.90;14.51;101106.19;5021255;28;20042;-81
2022/04/22 12:14:04;;;;;;;4.03;2.08;;;;;;;26.88;14.42;101105.66;5028030;28;20033;-79
2022/04/22 12:16:30;;;;;;;3.13;1.60;;;;;;;26.84;14.37;101099.06;5017310;28;20341;-79
2022/04/22 12:18:56;;;;;;;4.03;2.33;;;;;;;26.80;14.51;101093.34;5017751;28;20122;-79
2022/04/22 12:21:23;;;;;;;4.03;1.92;;;;;;;26.71;14.77;101097.75;5019334;28;20106;-79